Time,TemperatureF,DewpointF,PressureIn,WindDirection,WindDirectionDegrees,WindSpeedMPH,WindSpeedGustMPH,Humidity,HourlyPrecipIn,Conditions,Clouds,dailyrainin,SolarRadiationWatts/m^2,SoftwareType,DateUTC
2013-08-04 00:02:00,54.0,53.0,-100.00,ENE,69,1.0,4.0,96,0.00,,,0.00,0.000000,,2013-08-04 07:02:00,
2013-08-04 00:32:00,56.0,55.0,-100.00,ENE,58,1.0,3.0,97,0.00,,,0.00,0.000000,,2013-08-04 07:32:00,
2013-08-04 00:42:00,56.0,55.0,-100.00,ENE,58,1.0,3.0,97,0.00,,,0.00,0.000000,,2013-08-04 07:42:00,
2013-08-04 00:53:00,56.0,55.0,-100.00,ENE,58,1.0,3.0,97,0.00,,,0.00,0.000000,,2013-08-04 07:53:00,
2013-08-04 01:02:00,56.0,55.0,-100.00,ENE,58,1.0,3.0,97,0.00,,,0.00,0.000000,,2013-08-04 08:02:00,
2013-08-04 01:33:00,52.0,51.0,-100.00,SSW,213,1.0,4.0,96,0.00,,,0.00,0.000000,,2013-08-04 08:33:00,
2013-08-04 01:43:00,52.0,51.0,-100.00,SSW,213,1.0,4.0,96,0.00,,,0.00,0.000000,,2013-08-04 08:43:00,
2013-08-04 01:53:00,52.0,51.0,-100.00,SSW,213,1.0,4.0,96,0.00,,,0.00,0.000000,,2013-08-04 08:53:00,
2013-08-04 02:02:00,52.0,51.0,-100.00,SSW,213,1.0,4.0,96,0.00,,,0.00,0.000000,,2013-08-04 09:02:00,
2013-08-04 02:32:00,51.0,50.0,-100.00,SE,131,1.0,4.0,96,0.00,,,0.00,0.000000,,2013-08-04 09:32:00,
2013-08-04 02:43:00,51.0,50.0,-100.00,SE,131,1.0,4.0,96,0.00,,,0.00,0.000000,,2013-08-04 09:43:00,
2013-08-04 02:52:00,51.0,50.0,-100.00,SE,131,1.0,4.0,96,0.00,,,0.00,0.000000,,2013-08-04 09:52:00,
2013-08-04 03:02:00,51.0,50.0,-100.00,SE,131,1.0,4.0,96,0.00,,,0.00,0.000000,,2013-08-04 10:02:00,
2013-08-04 03:42:00,50.0,49.0,-100.00,NE,52,1.0,4.0,96,0.00,,,0.00,0.000000,,2013-08-04 10:42:00,
2013-08-04 03:53:00,50.0,49.0,-100.00,NE,52,1.0,4.0,96,0.00,,,0.00,0.000000,,2013-08-04 10:53:00,
2013-08-04 04:02:00,50.0,49.0,-100.00,NE,52,1.0,4.0,96,0.00,,,0.00,0.000000,,2013-08-04 11:02:00,
2013-08-04 04:32:00,50.0,49.0,-100.00,East,81,1.0,5.0,97,0.00,,,0.00,0.000000,,2013-08-04 11:32:00,
2013-08-04 04:42:00,50.0,49.0,-100.00,East,81,1.0,5.0,97,0.00,,,0.00,0.000000,,2013-08-04 11:42:00,
2013-08-04 04:52:00,50.0,49.0,-100.00,East,81,1.0,5.0,97,0.00,,,0.00,0.000000,,2013-08-04 11:52:00,
2013-08-04 05:02:00,50.0,49.0,-100.00,East,81,1.0,5.0,97,0.00,,,0.00,0.000000,,2013-08-04 12:02:00,
2013-08-04 05:33:00,48.0,47.0,-100.00,North,6,1.0,6.0,98,0.00,,,0.00,0.000000,,2013-08-04 12:33:00,
2013-08-04 05:43:00,48.0,47.0,-100.00,North,6,1.0,6.0,98,0.00,,,0.00,0.000000,,2013-08-04 12:43:00,
2013-08-04 05:53:00,48.0,47.0,-100.00,North,6,1.0,6.0,98,0.00,,,0.00,0.000000,,2013-08-04 12:53:00,
2013-08-04 06:02:00,48.0,47.0,-100.00,North,6,1.0,6.0,98,0.00,,,0.00,0.000000,,2013-08-04 13:02:00,
2013-08-04 06:32:00,48.0,47.0,-100.00,East,99,1.0,5.0,97,0.00,,,0.00,1.000000,,2013-08-04 13:32:00,
2013-08-04 06:43:00,48.0,47.0,-100.00,East,99,1.0,5.0,97,0.00,,,0.00,1.000000,,2013-08-04 13:43:00,
2013-08-04 06:52:00,48.0,47.0,-100.00,East,99,1.0,5.0,97,0.00,,,0.00,1.000000,,2013-08-04 13:52:00,
2013-08-04 07:02:00,48.0,47.0,-100.00,East,99,1.0,5.0,97,0.00,,,0.00,1.000000,,2013-08-04 14:02:00,
2013-08-04 07:33:00,49.0,48.0,-100.00,WSW,241,1.0,8.0,97,0.00,,,0.00,18.000000,,2013-08-04 14:33:00,
2013-08-04 07:43:00,49.0,48.0,-100.00,WSW,241,1.0,8.0,97,0.00,,,0.00,18.000000,,2013-08-04 14:43:00,
2013-08-04 07:53:00,49.0,48.0,-100.00,WSW,241,1.0,8.0,97,0.00,,,0.00,18.000000,,2013-08-04 14:53:00,
2013-08-04 08:01:00,49.0,48.0,-100.00,WSW,241,1.0,8.0,97,0.00,,,0.00,18.000000,,2013-08-04 15:01:00,
2013-08-04 08:32:00,53.0,52.0,-100.00,NE,47,1.0,6.0,96,0.00,,,0.00,38.000000,,2013-08-04 15:32:00,
2013-08-04 08:43:00,53.0,52.0,-100.00,NE,47,1.0,6.0,96,0.00,,,0.00,38.000000,,2013-08-04 15:43:00,
2013-08-04 08:53:00,53.0,52.0,-100.00,NE,47,1.0,6.0,96,0.00,,,0.00,38.000000,,2013-08-04 15:53:00,
2013-08-04 09:01:00,53.0,52.0,-100.00,NE,47,1.0,6.0,96,0.00,,,0.00,38.000000,,2013-08-04 16:01:00,
2013-08-04 09:33:00,58.0,56.0,-100.00,NE,38,1.0,3.0,92,0.00,,,0.00,148.000000,,2013-08-04 16:33:00,
2013-08-04 09:42:00,58.0,56.0,-100.00,NE,38,1.0,3.0,92,0.00,,,0.00,148.000000,,2013-08-04 16:42:00,
2013-08-04 09:53:00,58.0,56.0,-100.00,NE,38,1.0,3.0,92,0.00,,,0.00,148.000000,,2013-08-04 16:53:00,
2013-08-04 10:02:00,58.0,56.0,-100.00,NE,38,1.0,3.0,92,0.00,,,0.00,148.000000,,2013-08-04 17:02:00,
2013-08-04 10:32:00,78.0,57.0,-100.00,SSW,201,1.0,4.0,49,0.00,,,0.00,728.000000,,2013-08-04 17:32:00,
2013-08-04 10:43:00,78.0,57.0,-100.00,SSW,201,1.0,4.0,49,0.00,,,0.00,728.000000,,2013-08-04 17:43:00,
2013-08-04 11:33:00,80.0,55.0,-100.00,SW,225,1.0,5.0,43,-99.99,,,0.00,772.000000,,2013-08-04 18:33:00,
2013-08-04 11:43:00,80.0,55.0,-100.00,SW,225,1.0,5.0,43,-99.99,,,0.00,772.000000,,2013-08-04 18:43:00,
2013-08-04 12:02:00,80.0,55.0,-100.00,SW,225,1.0,5.0,43,-99.99,,,0.00,772.000000,,2013-08-04 19:02:00,
2013-08-04 12:33:00,75.0,58.0,-100.00,ENE,73,1.0,3.0,56,0.00,,,0.00,351.000000,,2013-08-04 19:33:00,
2013-08-04 12:44:00,75.0,58.0,-100.00,ENE,73,1.0,3.0,56,0.00,,,0.00,351.000000,,2013-08-04 19:44:00,
2013-08-04 12:53:00,75.0,58.0,-100.00,ENE,73,1.0,3.0,56,0.00,,,0.00,351.000000,,2013-08-04 19:53:00,
2013-08-04 13:02:00,75.0,58.0,-100.00,ENE,73,1.0,3.0,56,0.00,,,0.00,351.000000,,2013-08-04 20:02:00,
2013-08-04 13:43:00,86.0,49.0,-100.00,North,358,2.0,5.0,28,0.00,,,0.00,920.000000,,2013-08-04 20:43:00,
2013-08-04 14:32:00,86.0,49.0,-100.00,SW,233,2.0,6.0,28,-99.99,,,0.00,680.000000,,2013-08-04 21:32:00,
2013-08-04 14:43:00,86.0,49.0,-100.00,SW,233,2.0,6.0,28,-99.99,,,0.00,680.000000,,2013-08-04 21:43:00,
2013-08-04 15:01:00,86.0,49.0,-100.00,SW,233,2.0,6.0,28,-99.99,,,0.00,680.000000,,2013-08-04 22:01:00,
2013-08-04 16:32:00,88.0,51.0,-100.00,West,260,3.0,9.0,28,-99.99,,,0.00,786.000000,,2013-08-04 23:32:00,
2013-08-04 16:43:00,88.0,51.0,-100.00,West,260,3.0,9.0,28,-99.99,,,0.00,786.000000,,2013-08-04 23:43:00,
2013-08-04 17:33:00,88.0,51.0,-100.00,NW,319,2.0,9.0,28,-99.99,,,0.00,576.000000,,2013-08-05 00:33:00,
2013-08-04 17:42:00,88.0,51.0,-100.00,NW,319,2.0,9.0,28,-99.99,,,0.00,576.000000,,2013-08-05 00:42:00,
2013-08-04 18:33:00,86.0,55.0,-100.00,ESE,102,2.0,11.0,35,-99.99,,,0.00,582.000000,,2013-08-05 01:33:00,
2013-08-04 18:43:00,86.0,55.0,-100.00,ESE,102,2.0,11.0,35,-99.99,,,0.00,582.000000,,2013-08-05 01:43:00,
2013-08-04 19:33:00,78.0,57.0,-100.00,NNE,31,2.0,9.0,48,-99.99,,,0.00,205.000000,,2013-08-05 02:33:00,
2013-08-04 19:43:00,78.0,57.0,-100.00,NNE,31,2.0,9.0,48,-99.99,,,0.00,205.000000,,2013-08-05 02:43:00,
2013-08-04 19:53:00,78.0,57.0,-100.00,NNE,31,2.0,9.0,48,-99.99,,,0.00,205.000000,,2013-08-05 02:53:00,
2013-08-04 20:02:00,78.0,57.0,-100.00,NNE,31,2.0,9.0,48,-99.99,,,0.00,205.000000,,2013-08-05 03:02:00,
2013-08-04 20:42:00,70.0,59.0,-100.00,ESE,113,2.0,6.0,67,0.00,,,0.00,40.000000,,2013-08-05 03:42:00,
2013-08-04 20:53:00,70.0,59.0,-100.00,ESE,113,2.0,6.0,67,0.00,,,0.00,40.000000,,2013-08-05 03:53:00,
2013-08-04 21:02:00,70.0,59.0,-100.00,ESE,113,2.0,6.0,67,0.00,,,0.00,40.000000,,2013-08-05 04:02:00,
2013-08-04 21:52:00,63.0,57.0,-100.00,NE,52,1.0,6.0,80,0.00,,,0.00,3.000000,,2013-08-05 04:52:00,
2013-08-04 22:02:00,63.0,57.0,-100.00,NE,52,1.0,6.0,80,0.00,,,0.00,3.000000,,2013-08-05 05:02:00,
2013-08-04 22:32:00,61.0,57.0,-100.00,ENE,77,1.0,4.0,87,0.00,,,0.00,0.000000,,2013-08-05 05:32:00,
2013-08-04 22:43:00,61.0,57.0,-100.00,ENE,77,1.0,4.0,87,0.00,,,0.00,0.000000,,2013-08-05 05:43:00,
2013-08-04 22:53:00,61.0,57.0,-100.00,ENE,77,1.0,4.0,87,0.00,,,0.00,0.000000,,2013-08-05 05:53:00,
2013-08-04 23:32:00,57.0,55.0,-100.00,ENE,73,1.0,2.0,93,0.00,,,0.00,0.000000,,2013-08-05 06:32:00,
2013-08-04 23:43:00,57.0,55.0,-100.00,ENE,73,1.0,2.0,93,0.00,,,0.00,0.000000,,2013-08-05 06:43:00,
2013-08-04 23:52:00,57.0,55.0,-100.00,ENE,73,1.0,2.0,93,0.00,,,0.00,0.000000,,2013-08-05 06:52:00,